createdAt,value
2022-10-06T00:00:39.855Z,12.80
2022-10-06T00:03:13.277Z,12.80
2022-10-06T00:05:47.228Z,12.70
2022-10-06T00:08:20.430Z,12.70
2022-10-06T00:10:53.221Z,12.70
2022-10-06T00:13:27.568Z,12.70
2022-10-06T00:16:01.176Z,12.70
2022-10-06T00:18:34.032Z,12.70
2022-10-06T00:21:06.921Z,12.70
2022-10-06T00:23:40.372Z,12.60
2022-10-06T00:26:16.113Z,12.50
2022-10-06T00:28:52.235Z,12.50
2022-10-06T00:31:25.890Z,12.40
2022-10-06T00:33:58.887Z,12.40
2022-10-06T00:36:31.835Z,12.40
2022-10-06T00:39:04.645Z,12.30
2022-10-06T00:41:37.642Z,12.30
2022-10-06T00:44:11.317Z,12.30
2022-10-06T00:46:47.658Z,12.30
2022-10-06T00:49:37.849Z,12.20
2022-10-06T00:52:13.072Z,12.20
2022-10-06T00:54:46.785Z,12.10
2022-10-06T00:57:20.263Z,12.10
2022-10-06T00:59:53.151Z,12.00
2022-10-06T01:02:30.966Z,11.90
2022-10-06T01:05:05.677Z,11.90
2022-10-06T01:07:38.774Z,11.90
2022-10-06T01:10:12.084Z,11.90
2022-10-06T01:12:45.338Z,11.80
2022-10-06T01:15:19.449Z,11.80
2022-10-06T01:17:54.461Z,11.70
2022-10-06T01:20:28.103Z,11.70
2022-10-06T01:23:08.934Z,11.70
2022-10-06T01:25:43.012Z,11.70
2022-10-06T01:28:17.327Z,11.70
2022-10-06T01:30:58.724Z,11.70
2022-10-06T01:33:32.749Z,11.60
2022-10-06T01:36:06.560Z,11.60
2022-10-06T01:38:39.922Z,11.60
2022-10-06T01:41:12.893Z,11.60
2022-10-06T01:43:46.038Z,11.60
2022-10-06T01:46:19.425Z,11.50
2022-10-06T01:48:52.799Z,11.50
2022-10-06T01:51:25.797Z,11.40
2022-10-06T01:53:59.178Z,11.40
2022-10-06T01:56:32.457Z,11.30
2022-10-06T01:59:05.493Z,11.30
2022-10-06T02:01:38.749Z,11.30
2022-10-06T02:04:11.906Z,11.30
2022-10-06T02:06:44.896Z,11.40
2022-10-06T02:09:18.330Z,11.40
2022-10-06T02:11:51.619Z,11.40
2022-10-06T02:14:24.605Z,11.30
2022-10-06T02:16:59.001Z,11.30
2022-10-06T02:19:32.137Z,11.30
2022-10-06T02:22:06.084Z,11.30
2022-10-06T02:24:39.205Z,11.30
2022-10-06T02:27:12.330Z,11.30
2022-10-06T02:29:45.421Z,11.30
2022-10-06T02:32:18.599Z,11.30
2022-10-06T02:34:54.762Z,11.30
2022-10-06T02:37:26.315Z,11.30
2022-10-06T02:39:59.445Z,11.30
2022-10-06T02:42:32.641Z,11.30
2022-10-06T02:45:05.782Z,11.30
2022-10-06T02:47:39.890Z,11.30
2022-10-06T02:50:13.495Z,11.30
2022-10-06T02:52:46.885Z,11.30
2022-10-06T02:55:20.181Z,11.30
2022-10-06T02:57:53.268Z,11.30
2022-10-06T03:00:26.322Z,11.30
2022-10-06T03:02:59.604Z,11.30
2022-10-06T03:05:34.864Z,11.30
2022-10-06T03:08:07.879Z,11.30
2022-10-06T03:10:40.842Z,11.20
2022-10-06T03:13:13.972Z,11.30
2022-10-06T03:15:47.009Z,11.20
2022-10-06T03:18:20.204Z,11.20
2022-10-06T03:20:53.594Z,11.20
2022-10-06T03:23:26.668Z,11.10
2022-10-06T03:26:03.115Z,11.00
2022-10-06T03:28:36.167Z,11.00
2022-10-06T03:31:10.912Z,10.90
2022-10-06T03:33:44.076Z,10.90
2022-10-06T03:36:19.373Z,10.90
2022-10-06T03:38:52.534Z,11.00
2022-10-06T03:41:30.759Z,11.00
2022-10-06T03:44:04.082Z,11.00
2022-10-06T03:46:38.637Z,11.00
2022-10-06T03:49:11.608Z,11.00
2022-10-06T03:51:45.662Z,11.00
2022-10-06T03:54:18.599Z,11.00
2022-10-06T03:56:51.931Z,10.90
2022-10-06T03:59:24.960Z,10.90
2022-10-06T04:01:58.310Z,10.90
2022-10-06T04:04:31.060Z,10.80
2022-10-06T04:07:03.971Z,10.80
2022-10-06T04:09:36.950Z,10.80
2022-10-06T04:12:10.151Z,10.80
2022-10-06T04:14:45.528Z,10.80
2022-10-06T04:17:19.211Z,10.80
2022-10-06T04:19:52.165Z,10.80
2022-10-06T04:22:25.092Z,10.80
2022-10-06T04:24:58.272Z,10.70
2022-10-06T04:27:31.198Z,10.70
2022-10-06T04:30:04.217Z,10.70
2022-10-06T04:32:37.731Z,10.70
2022-10-06T04:35:11.715Z,10.70
2022-10-06T04:37:44.678Z,10.70
2022-10-06T04:40:18.311Z,10.70
2022-10-06T04:42:52.143Z,10.70
2022-10-06T04:45:25.163Z,10.70
2022-10-06T04:47:58.098Z,10.70
2022-10-06T04:50:31.311Z,10.70
2022-10-06T04:53:04.204Z,10.70
2022-10-06T04:55:37.897Z,10.70
2022-10-06T04:58:10.786Z,10.70
2022-10-06T05:00:44.105Z,10.70
2022-10-06T05:03:17.540Z,10.70
2022-10-06T05:05:50.657Z,10.70
2022-10-06T05:08:23.626Z,10.70
2022-10-06T05:10:58.352Z,10.70
2022-10-06T05:13:31.399Z,10.70
2022-10-06T05:16:05.490Z,10.70
2022-10-06T05:18:39.193Z,10.70
2022-10-06T05:21:19.265Z,10.70
2022-10-06T05:23:52.117Z,10.70
2022-10-06T05:26:26.922Z,10.70
2022-10-06T05:28:59.888Z,10.60
2022-10-06T05:31:34.620Z,10.70
2022-10-06T05:34:08.143Z,10.70
2022-10-06T05:36:41.375Z,10.70
2022-10-06T05:39:14.282Z,10.70
2022-10-06T05:41:51.359Z,10.70
2022-10-06T05:44:24.381Z,10.70
2022-10-06T05:46:57.334Z,10.70
2022-10-06T05:49:30.465Z,10.70
2022-10-06T05:52:03.545Z,10.70
2022-10-06T05:54:36.434Z,10.70
2022-10-06T05:57:09.775Z,10.70
2022-10-06T05:59:42.769Z,10.70
2022-10-06T06:02:16.158Z,10.70
2022-10-06T06:04:48.883Z,10.70
2022-10-06T06:07:21.979Z,10.70
2022-10-06T06:09:55.296Z,10.70
2022-10-06T06:12:28.163Z,10.60
2022-10-06T06:15:18.906Z,10.60
2022-10-06T06:17:52.535Z,10.60
2022-10-06T06:20:25.455Z,10.60
2022-10-06T06:22:58.546Z,10.60
2022-10-06T06:25:31.420Z,10.60
2022-10-06T06:28:04.385Z,10.50
2022-10-06T06:30:37.487Z,10.60
2022-10-06T06:33:10.398Z,10.60
2022-10-06T06:35:43.138Z,10.50
2022-10-06T06:38:16.284Z,10.50
2022-10-06T06:40:49.449Z,10.50
2022-10-06T06:43:22.303Z,10.50
2022-10-06T06:45:55.488Z,10.50
2022-10-06T06:48:28.523Z,10.40
2022-10-06T06:51:02.005Z,10.40
2022-10-06T06:53:35.165Z,10.40
2022-10-06T06:56:12.655Z,10.40
2022-10-06T06:58:51.165Z,10.40
2022-10-06T07:01:25.456Z,10.40
2022-10-06T07:04:00.699Z,10.40
2022-10-06T07:06:34.589Z,10.30
2022-10-06T07:09:07.837Z,10.30
2022-10-06T07:11:42.654Z,10.30
2022-10-06T07:14:16.150Z,10.30
2022-10-06T07:17:10.045Z,10.30
2022-10-06T07:19:47.199Z,10.30
2022-10-06T07:22:39.467Z,10.20
2022-10-06T07:25:15.034Z,10.20
2022-10-06T07:27:50.007Z,10.20
2022-10-06T07:30:28.380Z,10.20
2022-10-06T07:33:01.067Z,10.20
2022-10-06T07:35:34.087Z,10.20
2022-10-06T07:38:08.234Z,10.20
2022-10-06T07:40:46.189Z,10.30
2022-10-06T07:43:15.474Z,10.20
2022-10-06T07:45:48.706Z,10.20
2022-10-06T07:48:25.707Z,10.20
2022-10-06T07:50:58.872Z,10.20
2022-10-06T07:53:39.068Z,10.20
2022-10-06T07:56:12.981Z,10.20
2022-10-06T07:58:46.508Z,10.20
2022-10-06T08:01:20.842Z,10.20
2022-10-06T08:03:53.914Z,10.20
2022-10-06T08:06:26.891Z,10.20
2022-10-06T08:09:02.679Z,10.20
2022-10-06T08:11:35.841Z,10.20
2022-10-06T08:14:09.050Z,10.20
2022-10-06T08:16:42.145Z,10.20
2022-10-06T08:19:16.083Z,10.20
2022-10-06T08:21:48.895Z,10.20
2022-10-06T08:24:22.576Z,10.20
2022-10-06T08:26:56.139Z,10.20
2022-10-06T08:29:33.118Z,10.30
2022-10-06T08:32:06.348Z,10.20
2022-10-06T08:34:39.170Z,10.30
2022-10-06T08:37:20.456Z,10.20
2022-10-06T08:39:46.247Z,10.20
2022-10-06T08:42:38.006Z,10.20
2022-10-06T08:45:22.491Z,10.20
2022-10-06T08:48:09.592Z,10.20
2022-10-06T08:51:00.886Z,10.10
2022-10-06T08:54:01.696Z,10.10
2022-10-06T08:57:04.534Z,10.10
2022-10-06T08:59:41.099Z,10.10
2022-10-06T09:02:21.878Z,10.10
2022-10-06T09:04:54.964Z,10.10
2022-10-06T09:07:35.689Z,10.10
2022-10-06T09:10:13.725Z,10.10
2022-10-06T09:12:48.730Z,10.10
2022-10-06T09:15:55.700Z,10.10
2022-10-06T09:18:49.794Z,10.10
2022-10-06T09:21:13.758Z,10.10
2022-10-06T09:23:51.597Z,10.10
2022-10-06T09:26:27.058Z,10.10
2022-10-06T09:29:04.342Z,10.10
2022-10-06T09:31:42.310Z,10.10
2022-10-06T09:34:17.612Z,10.10
2022-10-06T09:37:05.116Z,10.20
2022-10-06T09:39:39.970Z,10.10
2022-10-06T09:42:15.376Z,10.20
2022-10-06T09:44:59.345Z,10.20
2022-10-06T09:47:53.663Z,10.20
2022-10-06T09:50:31.378Z,10.20
2022-10-06T09:53:09.424Z,10.10
2022-10-06T09:55:44.457Z,10.10
2022-10-06T09:58:38.891Z,10.20
2022-10-06T10:01:16.264Z,10.10
2022-10-06T10:04:15.540Z,10.10
2022-10-06T10:06:40.381Z,10.10
2022-10-06T10:09:24.146Z,10.10
2022-10-06T10:12:30.332Z,10.10
2022-10-06T10:15:06.024Z,10.00
2022-10-06T10:17:40.906Z,10.00
2022-10-06T10:20:28.798Z,10.00
2022-10-06T10:23:03.775Z,10.00
2022-10-06T10:25:53.615Z,10.00
2022-10-06T10:28:47.810Z,10.00
2022-10-06T10:31:42.298Z,10.00
2022-10-06T10:34:51.536Z,10.00
2022-10-06T10:37:45.336Z,10.00
2022-10-06T10:40:45.504Z,10.00
2022-10-06T10:43:41.637Z,10.00
2022-10-06T10:46:19.497Z,10.00
2022-10-06T10:49:03.465Z,10.00
2022-10-06T10:51:47.093Z,10.00
2022-10-06T10:54:26.453Z,10.00
2022-10-06T10:56:59.488Z,10.00
2022-10-06T10:59:46.302Z,10.10
2022-10-06T11:02:21.854Z,10.10
2022-10-06T11:05:00.005Z,10.10
2022-10-06T11:07:38.177Z,10.10
2022-10-06T11:10:24.975Z,10.10
2022-10-06T11:13:14.527Z,10.10
2022-10-06T11:16:11.598Z,10.10
2022-10-06T11:19:04.806Z,10.10
2022-10-06T11:21:42.352Z,10.10
2022-10-06T11:24:29.518Z,10.20
2022-10-06T11:27:20.725Z,10.20
2022-10-06T11:30:11.906Z,10.20
2022-10-06T11:33:02.748Z,10.20
2022-10-06T11:35:41.148Z,10.20
2022-10-06T11:38:43.639Z,10.20
2022-10-06T11:41:34.137Z,10.20
2022-10-06T11:44:30.276Z,10.20
2022-10-06T11:47:11.251Z,10.20
2022-10-06T11:49:54.804Z,10.20
2022-10-06T11:52:29.844Z,10.20
2022-10-06T11:55:13.712Z,10.20
2022-10-06T11:58:41.759Z,10.20
2022-10-06T12:00:47.491Z,10.20
2022-10-06T12:03:34.879Z,10.20
2022-10-06T12:06:07.829Z,10.20
2022-10-06T12:08:42.695Z,10.20
2022-10-06T12:11:42.829Z,10.30
2022-10-06T12:17:11.482Z,10.20
2022-10-06T12:19:55.554Z,10.30
2022-10-06T12:22:33.637Z,10.20
2022-10-06T12:25:08.284Z,10.20
2022-10-06T12:28:00.652Z,10.20
2022-10-06T12:30:35.744Z,10.20
2022-10-06T12:33:09.936Z,10.20
2022-10-06T12:35:43.477Z,10.20
2022-10-06T12:38:41.962Z,10.20
2022-10-06T12:41:20.215Z,10.20
2022-10-06T12:44:00.255Z,10.20
2022-10-06T12:46:47.063Z,10.20
2022-10-06T12:49:34.532Z,10.10
2022-10-06T12:52:12.401Z,10.10
2022-10-06T12:54:52.997Z,10.10
2022-10-06T12:57:27.195Z,10.10
2022-10-06T13:00:00.321Z,10.10
2022-10-06T13:02:33.926Z,10.10
2022-10-06T13:05:08.314Z,10.10
2022-10-06T13:07:42.862Z,10.10
2022-10-06T13:10:20.876Z,10.10
2022-10-06T13:12:54.575Z,10.10
2022-10-06T13:15:42.662Z,10.10
2022-10-06T13:18:17.609Z,10.00
2022-10-06T13:20:55.443Z,10.00
2022-10-06T13:23:35.797Z,10.00
2022-10-06T13:26:10.826Z,10.00
2022-10-06T13:28:51.828Z,10.00
2022-10-06T13:31:39.777Z,9.90
2022-10-06T13:34:17.065Z,9.90
2022-10-06T13:36:52.231Z,9.90
2022-10-06T13:39:27.455Z,9.90
2022-10-06T13:42:18.500Z,9.90
2022-10-06T13:45:05.997Z,9.90
2022-10-06T13:47:39.502Z,9.90
2022-10-06T13:50:20.906Z,9.90
2022-10-06T13:52:54.236Z,9.90
2022-10-06T13:55:31.007Z,9.90
2022-10-06T13:58:08.572Z,9.80
2022-10-06T14:00:52.022Z,9.80
2022-10-06T14:03:27.471Z,9.80
2022-10-06T14:06:21.037Z,9.70
2022-10-06T14:09:02.414Z,9.70
2022-10-06T14:11:35.439Z,9.60
2022-10-06T14:14:09.527Z,9.60
2022-10-06T14:16:42.661Z,9.60
2022-10-06T14:19:33.823Z,9.60
2022-10-06T14:22:08.066Z,9.50
2022-10-06T14:24:40.903Z,9.40
2022-10-06T14:27:13.814Z,9.40
2022-10-06T14:29:46.619Z,9.40
2022-10-06T14:32:20.246Z,9.40
2022-10-06T14:34:53.138Z,9.30
2022-10-06T14:37:26.296Z,9.30
2022-10-06T14:39:59.481Z,9.30
2022-10-06T14:42:32.378Z,9.30
2022-10-06T14:45:05.378Z,9.20
2022-10-06T14:47:38.095Z,9.20
2022-10-06T14:50:13.729Z,9.20
2022-10-06T14:52:46.714Z,9.20
2022-10-06T14:55:19.523Z,9.10
2022-10-06T14:57:52.674Z,9.10
2022-10-06T15:00:25.611Z,9.00
2022-10-06T15:02:58.910Z,9.00
2022-10-06T15:05:32.116Z,9.00
2022-10-06T15:08:14.074Z,9.00
2022-10-06T15:10:48.912Z,9.00
2022-10-06T15:13:21.992Z,9.00
2022-10-06T15:15:56.750Z,8.90
2022-10-06T15:18:29.657Z,8.90
2022-10-06T15:21:09.970Z,8.90
2022-10-06T15:23:43.557Z,8.80
2022-10-06T15:26:33.871Z,8.80
2022-10-06T15:29:06.764Z,8.80
2022-10-06T15:31:44.431Z,8.70
2022-10-06T15:34:18.306Z,8.70
2022-10-06T15:36:52.473Z,8.60
2022-10-06T15:39:29.620Z,8.60
2022-10-06T15:42:03.153Z,8.60
2022-10-06T15:44:39.142Z,8.60
2022-10-06T15:47:13.304Z,8.60
2022-10-06T15:49:46.241Z,8.50
2022-10-06T15:52:20.581Z,8.50
2022-10-06T15:54:53.875Z,8.50
2022-10-06T15:57:27.250Z,8.50
2022-10-06T16:00:00.218Z,8.50
2022-10-06T16:02:34.390Z,8.50
2022-10-06T16:05:08.719Z,8.40
2022-10-06T16:07:41.881Z,8.40
2022-10-06T16:10:15.444Z,8.40
2022-10-06T16:12:48.643Z,8.40
2022-10-06T16:15:21.490Z,8.30
2022-10-06T16:17:54.519Z,8.30
2022-10-06T16:20:27.522Z,8.30
2022-10-06T16:23:00.577Z,8.30
2022-10-06T16:25:33.482Z,8.30
2022-10-06T16:28:06.510Z,8.30
2022-10-06T16:30:39.116Z,8.30
2022-10-06T16:33:11.926Z,8.30
2022-10-06T16:35:44.553Z,8.20
2022-10-06T16:38:17.710Z,8.20
2022-10-06T16:40:58.388Z,8.20
2022-10-06T16:43:38.459Z,8.20
2022-10-06T16:46:13.678Z,8.20
2022-10-06T16:48:48.348Z,8.20
2022-10-06T16:51:23.490Z,8.20
2022-10-06T16:54:09.906Z,8.20
2022-10-06T16:56:47.808Z,8.20
2022-10-06T16:59:22.368Z,8.10
2022-10-06T17:01:55.425Z,8.10
2022-10-06T17:04:28.937Z,8.10
2022-10-06T17:07:02.351Z,8.10
2022-10-06T17:09:35.314Z,8.10
2022-10-06T17:12:08.745Z,8.10
2022-10-06T17:14:41.685Z,8.10
2022-10-06T17:17:14.680Z,8.10
2022-10-06T17:19:47.770Z,8.00
2022-10-06T17:22:21.509Z,8.00
2022-10-06T17:24:54.292Z,8.00
2022-10-06T17:27:28.709Z,8.00
2022-10-06T17:30:01.494Z,8.00
2022-10-06T17:32:34.544Z,8.00
2022-10-06T17:35:07.820Z,8.00
2022-10-06T17:37:41.921Z,8.00
2022-10-06T17:40:14.929Z,7.90
2022-10-06T17:42:47.935Z,7.90
2022-10-06T17:45:21.497Z,7.90
2022-10-06T17:47:54.515Z,7.90
2022-10-06T17:50:27.582Z,7.90
2022-10-06T17:53:01.430Z,7.80
2022-10-06T17:55:38.640Z,7.80
2022-10-06T17:58:15.175Z,7.80
2022-10-06T18:00:45.520Z,7.80
2022-10-06T18:03:18.361Z,7.80
2022-10-06T18:05:59.290Z,7.80
2022-10-06T18:08:37.342Z,7.80
2022-10-06T18:11:27.931Z,7.80
2022-10-06T18:14:01.038Z,7.80
2022-10-06T18:16:36.987Z,7.80
2022-10-06T18:19:12.061Z,7.80
2022-10-06T18:21:46.033Z,7.80
2022-10-06T18:24:29.633Z,7.80
2022-10-06T18:27:03.850Z,7.80
2022-10-06T18:29:39.043Z,7.80
2022-10-06T18:36:12.045Z,7.90
2022-10-06T18:37:20.454Z,7.90
2022-10-06T18:39:53.176Z,8.00
2022-10-06T18:42:26.543Z,8.00
2022-10-06T18:45:16.983Z,8.00
2022-10-06T18:48:07.256Z,8.10
2022-10-06T18:50:41.271Z,8.10
2022-10-06T18:53:14.207Z,8.10
2022-10-06T18:55:47.406Z,8.20
2022-10-06T18:58:20.178Z,8.20
2022-10-06T19:00:52.945Z,8.20
2022-10-06T19:03:25.809Z,8.30
2022-10-06T19:05:58.970Z,8.30
2022-10-06T19:08:31.908Z,8.40
2022-10-06T19:11:22.865Z,8.40
2022-10-06T19:13:57.750Z,8.40
2022-10-06T19:16:30.719Z,8.50
2022-10-06T19:19:04.861Z,8.60
2022-10-06T19:21:39.019Z,8.60
2022-10-06T19:24:13.297Z,8.70
2022-10-06T19:26:47.039Z,8.70
2022-10-06T19:29:21.333Z,8.80
2022-10-06T19:31:55.327Z,8.90
2022-10-06T19:34:28.453Z,8.90
2022-10-06T19:37:04.196Z,9.00
2022-10-06T19:39:39.973Z,9.00
2022-10-06T19:42:40.090Z,9.10
2022-10-06T19:45:13.977Z,9.10
2022-10-06T19:47:47.768Z,9.10
2022-10-06T19:50:21.591Z,9.20
2022-10-06T19:52:54.657Z,9.20
2022-10-06T19:55:29.859Z,9.30
2022-10-06T19:58:02.914Z,9.40
2022-10-06T20:00:35.821Z,9.50
2022-10-06T20:03:09.474Z,9.60
2022-10-06T20:05:42.497Z,9.70
2022-10-06T20:08:15.567Z,9.80
2022-10-06T20:10:48.556Z,9.90
2022-10-06T20:13:22.107Z,10.00
2022-10-06T20:15:55.328Z,10.10
2022-10-06T20:18:33.598Z,10.20
2022-10-06T20:21:06.855Z,10.20
2022-10-06T20:23:39.756Z,10.30
2022-10-06T20:26:14.897Z,10.40
2022-10-06T20:28:49.035Z,10.50
2022-10-06T20:31:27.851Z,10.60
2022-10-06T20:34:02.626Z,10.70
2022-10-06T20:36:36.858Z,10.80
2022-10-06T20:39:31.574Z,10.90
2022-10-06T20:42:04.613Z,11.00
2022-10-06T20:44:37.906Z,11.00
2022-10-06T20:47:13.823Z,11.10
2022-10-06T20:49:46.778Z,11.20
2022-10-06T20:52:19.880Z,11.30
2022-10-06T20:54:53.089Z,11.40
2022-10-06T20:57:28.107Z,11.50
2022-10-06T21:00:00.159Z,11.60
2022-10-06T21:02:34.053Z,11.70
2022-10-06T21:05:07.198Z,11.80
2022-10-06T21:07:40.180Z,11.90
2022-10-06T21:10:13.583Z,12.00
2022-10-06T21:12:47.988Z,12.00
2022-10-06T21:15:21.181Z,12.10
2022-10-06T21:17:54.170Z,12.20
2022-10-06T21:20:29.975Z,12.20
2022-10-06T21:23:03.036Z,12.30
2022-10-06T21:25:37.087Z,12.40
2022-10-06T21:28:10.157Z,12.50
2022-10-06T21:30:44.379Z,12.50
2022-10-06T21:33:19.667Z,12.60
2022-10-06T21:35:54.289Z,12.70
2022-10-06T21:38:27.399Z,12.70
2022-10-06T21:41:01.885Z,12.70
2022-10-06T21:43:34.801Z,12.80
2022-10-06T21:46:27.515Z,12.90
2022-10-06T21:48:42.157Z,13.00
2022-10-06T21:51:15.178Z,13.10
2022-10-06T21:53:48.405Z,13.10
2022-10-06T21:56:21.865Z,13.10
2022-10-06T21:58:59.978Z,13.20
2022-10-06T22:01:39.802Z,13.30
2022-10-06T22:04:14.168Z,13.30
2022-10-06T22:06:49.484Z,13.40
2022-10-06T22:09:23.666Z,13.40
2022-10-06T22:11:57.031Z,13.40
2022-10-06T22:14:29.976Z,13.40
2022-10-06T22:17:02.857Z,13.40
2022-10-06T22:19:35.892Z,13.50
2022-10-06T22:22:08.857Z,13.50
2022-10-06T22:24:45.887Z,13.50
2022-10-06T22:27:19.148Z,13.60
2022-10-06T22:29:52.085Z,13.70
2022-10-06T22:32:25.731Z,13.80
2022-10-06T22:34:59.233Z,13.80
2022-10-06T22:37:32.115Z,13.80
2022-10-06T22:40:07.611Z,13.80
2022-10-06T22:42:39.188Z,13.80
2022-10-06T22:45:12.442Z,13.80
2022-10-06T22:47:45.575Z,13.90
2022-10-06T22:50:19.301Z,13.90
2022-10-06T22:52:52.428Z,13.90
2022-10-06T22:55:25.223Z,13.90
2022-10-06T22:57:58.231Z,13.90
2022-10-06T23:00:31.420Z,14.00
2022-10-06T23:03:04.439Z,14.00
2022-10-06T23:05:37.543Z,14.10
2022-10-06T23:08:11.275Z,14.20
2022-10-06T23:10:44.215Z,14.20
2022-10-06T23:13:17.738Z,14.30
2022-10-06T23:15:50.749Z,14.30
2022-10-06T23:18:23.694Z,14.30
2022-10-06T23:20:56.558Z,14.20
2022-10-06T23:23:29.397Z,14.10
2022-10-06T23:26:03.762Z,14.10
2022-10-06T23:28:36.897Z,14.10
2022-10-06T23:31:11.059Z,14.00
2022-10-06T23:33:44.068Z,14.00
2022-10-06T23:36:17.169Z,14.00
2022-10-06T23:38:55.245Z,14.10
2022-10-06T23:41:28.242Z,14.10
2022-10-06T23:44:01.766Z,14.20
2022-10-06T23:46:34.742Z,14.20
2022-10-06T23:49:12.116Z,14.20
2022-10-06T23:51:45.168Z,14.20
2022-10-06T23:54:17.969Z,14.20
2022-10-06T23:56:52.504Z,14.30
2022-10-06T23:59:25.460Z,14.30
